createdAt,value
2019-05-20T00:01:50.653Z,14.30
2019-05-20T00:03:54.654Z,14.40
2019-05-20T00:05:58.767Z,14.30
2019-05-20T00:08:02.723Z,14.30
2019-05-20T00:10:07.326Z,14.10
2019-05-20T00:12:11.213Z,14.00
2019-05-20T00:14:15.163Z,14.00
2019-05-20T00:16:19.260Z,14.00
2019-05-20T00:18:23.171Z,13.90
2019-05-20T00:20:27.232Z,13.90
2019-05-20T00:22:31.078Z,13.80
2019-05-20T00:24:35.030Z,13.90
2019-05-20T00:26:38.913Z,14.00
2019-05-20T00:28:42.828Z,13.80
2019-05-20T00:30:46.863Z,13.70
2019-05-20T00:32:50.794Z,13.70
2019-05-20T00:34:54.720Z,13.60
2019-05-20T00:36:59.109Z,13.60
2019-05-20T00:39:31.226Z,13.60
2019-05-20T00:41:35.288Z,13.70
2019-05-20T00:43:39.123Z,13.80
2019-05-20T00:45:43.123Z,13.70
2019-05-20T00:47:47.123Z,13.50
2019-05-20T00:49:51.047Z,13.40
2019-05-20T00:51:55.012Z,13.40
2019-05-20T00:53:58.952Z,13.50
2019-05-20T00:56:03.108Z,13.60
2019-05-20T00:58:06.926Z,13.40
2019-05-20T01:00:11.039Z,13.40
2019-05-20T01:02:14.935Z,13.30
2019-05-20T01:04:18.763Z,13.40
2019-05-20T01:06:22.763Z,13.50
2019-05-20T01:08:26.980Z,13.30
2019-05-20T01:10:30.930Z,13.20
2019-05-20T01:12:34.943Z,13.20
2019-05-20T01:14:38.972Z,13.20
2019-05-20T01:16:43.192Z,13.20
2019-05-20T01:18:47.127Z,13.30
2019-05-20T01:20:52.863Z,13.30
2019-05-20T01:22:56.919Z,13.40
2019-05-20T01:25:00.769Z,13.40
2019-05-20T01:27:04.795Z,13.30
2019-05-20T01:29:08.711Z,13.20
2019-05-20T01:31:14.892Z,13.10
2019-05-20T01:33:31.924Z,13.10
2019-05-20T01:35:35.869Z,13.10
2019-05-20T01:37:39.845Z,13.30
2019-05-20T01:39:43.827Z,13.40
2019-05-20T01:41:47.965Z,13.30
2019-05-20T01:43:51.827Z,13.40
2019-05-20T01:45:55.759Z,13.40
2019-05-20T01:47:59.646Z,13.30
2019-05-20T01:50:03.831Z,13.20
2019-05-20T01:52:08.021Z,13.20
2019-05-20T01:54:11.861Z,13.30
2019-05-20T01:56:15.816Z,13.40
2019-05-20T01:58:19.811Z,13.50
2019-05-20T02:00:23.935Z,13.50
2019-05-20T02:02:27.948Z,13.70
2019-05-20T02:04:31.907Z,13.80
2019-05-20T02:06:35.775Z,13.60
2019-05-20T02:08:39.660Z,13.90
2019-05-20T02:10:43.704Z,13.70
2019-05-20T02:12:47.578Z,13.40
2019-05-20T02:14:57.699Z,13.50
2019-05-20T02:17:02.825Z,13.40
2019-05-20T02:19:06.958Z,13.30
2019-05-20T02:21:10.908Z,13.30
2019-05-20T02:23:15.540Z,13.30
2019-05-20T02:25:19.651Z,13.50
2019-05-20T02:27:23.681Z,13.40
2019-05-20T02:29:27.591Z,13.50
2019-05-20T02:31:31.537Z,13.60
2019-05-20T02:33:51.005Z,13.70
2019-05-20T02:35:41.140Z,13.50
2019-05-20T02:37:44.983Z,13.30
2019-05-20T02:39:48.972Z,13.30
2019-05-20T02:41:52.970Z,13.30
2019-05-20T02:43:56.959Z,13.50
2019-05-20T02:46:01.117Z,13.50
2019-05-20T02:48:05.313Z,13.50
2019-05-20T02:50:09.454Z,13.50
2019-05-20T02:52:13.280Z,13.50
2019-05-20T02:54:17.222Z,13.40
2019-05-20T02:56:21.120Z,13.20
2019-05-20T02:58:25.119Z,13.30
2019-05-20T03:00:29.112Z,13.30
2019-05-20T03:02:33.025Z,13.10
2019-05-20T03:04:36.950Z,13.20
2019-05-20T03:06:41.136Z,13.30
2019-05-20T03:08:45.061Z,13.20
2019-05-20T03:10:49.045Z,13.30
2019-05-20T03:12:54.216Z,13.10
2019-05-20T03:14:58.072Z,13.00
2019-05-20T03:17:01.934Z,12.80
2019-05-20T03:19:05.840Z,12.80
2019-05-20T03:21:09.691Z,12.70
2019-05-20T03:23:13.661Z,12.80
2019-05-20T03:25:17.716Z,12.90
2019-05-20T03:27:21.561Z,12.90
2019-05-20T03:29:25.609Z,13.00
2019-05-20T03:31:29.698Z,13.00
2019-05-20T03:33:33.646Z,13.00
2019-05-20T03:35:37.610Z,13.00
2019-05-20T03:37:41.496Z,13.00
2019-05-20T03:39:45.479Z,12.90
2019-05-20T03:41:49.312Z,12.90
2019-05-20T03:43:53.165Z,12.90
2019-05-20T03:45:57.063Z,12.90
2019-05-20T03:48:01.195Z,12.80
2019-05-20T03:50:05.523Z,12.80
2019-05-20T03:52:09.411Z,12.90
2019-05-20T03:54:13.250Z,12.70
2019-05-20T03:56:17.101Z,12.70
2019-05-20T03:58:21.039Z,13.00
2019-05-20T04:00:42.711Z,13.00
2019-05-20T04:02:46.546Z,12.90
2019-05-20T04:05:01.214Z,12.90
2019-05-20T04:06:56.053Z,12.80
2019-05-20T04:08:59.936Z,12.70
2019-05-20T04:11:03.808Z,12.70
2019-05-20T04:13:07.985Z,12.60
2019-05-20T04:15:11.960Z,12.50
2019-05-20T04:17:15.925Z,12.60
2019-05-20T04:19:19.852Z,12.70
2019-05-20T04:21:23.932Z,12.80
2019-05-20T04:23:27.993Z,12.90
2019-05-20T04:25:32.016Z,12.90
2019-05-20T04:27:35.957Z,12.90
2019-05-20T04:29:39.920Z,12.70
2019-05-20T04:31:45.225Z,12.70
2019-05-20T04:33:49.047Z,12.80
2019-05-20T04:35:52.897Z,12.90
2019-05-20T04:37:56.954Z,12.90
2019-05-20T04:40:00.932Z,12.80
2019-05-20T04:42:06.696Z,12.80
2019-05-20T04:44:10.800Z,12.80
2019-05-20T04:46:14.728Z,12.80
2019-05-20T04:48:18.768Z,12.90
2019-05-20T04:50:22.667Z,12.80
2019-05-20T04:52:26.791Z,12.80
2019-05-20T04:54:30.634Z,12.70
2019-05-20T04:56:34.766Z,12.90
2019-05-20T04:58:38.638Z,12.90
2019-05-20T05:00:57.692Z,13.00
2019-05-20T05:03:01.913Z,13.10
2019-05-20T05:05:06.668Z,13.00
2019-05-20T05:07:10.681Z,12.80
2019-05-20T05:09:15.692Z,12.80
2019-05-20T05:11:19.933Z,12.80
2019-05-20T05:13:24.207Z,12.90
2019-05-20T05:15:28.175Z,13.00
2019-05-20T05:17:32.265Z,13.00
2019-05-20T05:19:36.188Z,13.10
2019-05-20T05:21:40.123Z,13.10
2019-05-20T05:23:58.240Z,13.20
2019-05-20T05:25:50.076Z,13.40
2019-05-20T05:27:53.912Z,13.50
2019-05-20T05:29:57.967Z,13.30
2019-05-20T05:32:01.889Z,13.30
2019-05-20T05:34:06.028Z,13.30
2019-05-20T05:36:10.367Z,13.30
2019-05-20T05:38:14.303Z,13.20
2019-05-20T05:40:18.677Z,13.10
2019-05-20T05:42:22.551Z,13.10
2019-05-20T05:44:26.399Z,13.20
2019-05-20T05:46:30.312Z,13.40
2019-05-20T05:48:34.219Z,13.40
2019-05-20T05:50:38.180Z,13.40
2019-05-20T05:52:43.483Z,13.40
2019-05-20T05:54:47.499Z,13.30
2019-05-20T05:56:51.517Z,13.30
2019-05-20T05:58:55.606Z,13.40
2019-05-20T06:00:59.465Z,13.50
2019-05-20T06:03:03.580Z,13.50
2019-05-20T06:05:07.787Z,13.50
2019-05-20T06:07:11.704Z,13.50
2019-05-20T06:11:27.755Z,13.80
2019-05-20T06:13:31.723Z,13.80
2019-05-20T06:15:35.665Z,13.80
2019-05-20T06:17:39.731Z,13.60
2019-05-20T06:19:43.667Z,13.70
2019-05-20T06:21:47.556Z,13.50
2019-05-20T06:23:51.508Z,13.50
2019-05-20T06:25:55.440Z,13.40
2019-05-20T06:27:59.609Z,13.40
2019-05-20T06:30:04.007Z,13.40
2019-05-20T06:32:08.001Z,13.50
2019-05-20T06:34:11.904Z,13.60
2019-05-20T06:36:26.406Z,13.40
2019-05-20T06:38:41.651Z,13.40
2019-05-20T06:40:45.575Z,13.40
2019-05-20T06:42:49.719Z,13.40
2019-05-20T06:44:57.167Z,13.50
2019-05-20T06:46:59.424Z,13.60
2019-05-20T06:49:03.605Z,13.70
2019-05-20T06:51:07.583Z,14.00
2019-05-20T06:53:11.651Z,14.10
2019-05-20T06:55:15.878Z,14.20
2019-05-20T06:57:19.702Z,14.20
2019-05-20T06:59:23.590Z,14.30
2019-05-20T07:01:27.580Z,14.20
2019-05-20T07:03:31.680Z,14.00
2019-05-20T07:05:36.188Z,14.00
2019-05-20T07:07:40.060Z,14.20
2019-05-20T07:09:43.948Z,14.10
2019-05-20T07:11:52.614Z,14.10
2019-05-20T07:13:53.609Z,14.30
2019-05-20T07:15:57.735Z,14.60
2019-05-20T07:18:01.791Z,14.80
2019-05-20T07:20:06.017Z,15.10
2019-05-20T07:22:09.901Z,15.30
2019-05-20T07:24:13.723Z,15.20
2019-05-20T07:26:17.699Z,15.50
2019-05-20T07:28:21.609Z,15.70
2019-05-20T07:30:25.524Z,15.90
2019-05-20T07:32:29.433Z,15.90
2019-05-20T07:34:33.278Z,15.50
2019-05-20T07:36:37.107Z,15.50
2019-05-20T07:38:41.219Z,15.00
2019-05-20T07:40:45.067Z,14.90
2019-05-20T07:42:48.975Z,15.20
2019-05-20T07:44:52.883Z,15.30
2019-05-20T07:46:56.931Z,15.30
2019-05-20T07:49:01.101Z,15.40
2019-05-20T07:51:05.370Z,14.90
2019-05-20T07:53:11.999Z,15.00
2019-05-20T07:55:16.252Z,15.30
2019-05-20T07:57:22.280Z,15.20
2019-05-20T07:59:27.999Z,14.90
2019-05-20T08:01:32.008Z,14.90
2019-05-20T08:03:38.595Z,15.00
2019-05-20T08:05:41.589Z,15.10
2019-05-20T08:07:51.968Z,15.10
2019-05-20T08:09:51.164Z,15.10
2019-05-20T08:11:55.227Z,15.30
2019-05-20T08:13:59.269Z,15.50
2019-05-20T08:16:03.265Z,15.40
2019-05-20T08:18:07.465Z,15.50
2019-05-20T08:20:11.775Z,15.70
2019-05-20T08:22:15.760Z,15.90
2019-05-20T08:24:19.722Z,16.10
2019-05-20T08:26:23.737Z,16.30
2019-05-20T08:28:27.858Z,16.70
2019-05-20T08:30:34.634Z,16.90
2019-05-20T08:32:38.943Z,16.80
2019-05-20T08:34:42.876Z,16.80
2019-05-20T08:36:46.963Z,16.50
2019-05-20T08:38:50.887Z,16.80
2019-05-20T08:40:54.808Z,17.00
2019-05-20T08:42:58.891Z,17.10
2019-05-20T08:45:03.554Z,17.30
2019-05-20T08:47:07.792Z,17.10
2019-05-20T08:49:11.912Z,16.90
2019-05-20T08:51:15.981Z,17.20
2019-05-20T08:53:19.973Z,17.30
2019-05-20T08:55:23.875Z,17.30
2019-05-20T08:57:28.052Z,17.10
2019-05-20T08:59:31.883Z,16.70
2019-05-20T09:01:35.847Z,17.00
2019-05-20T09:03:39.760Z,17.20
2019-05-20T09:05:43.685Z,17.40
2019-05-20T09:08:01.674Z,17.50
2019-05-20T09:09:53.602Z,17.50
2019-05-20T09:11:57.575Z,17.40
2019-05-20T09:14:01.591Z,17.40
2019-05-20T09:16:08.305Z,17.60
2019-05-20T09:18:15.399Z,17.60
2019-05-20T09:20:20.340Z,17.70
2019-05-20T09:22:24.323Z,17.60
2019-05-20T09:24:28.825Z,17.80
2019-05-20T09:26:32.687Z,17.70
2019-05-20T09:28:36.567Z,17.40
2019-05-20T09:30:40.566Z,17.30
2019-05-20T09:32:44.571Z,17.60
2019-05-20T09:34:48.680Z,17.90
2019-05-20T09:36:52.738Z,17.70
2019-05-20T09:38:56.563Z,17.80
2019-05-20T09:41:00.581Z,17.90
2019-05-20T09:43:04.465Z,17.70
2019-05-20T09:45:08.883Z,17.80
2019-05-20T09:47:12.911Z,17.40
2019-05-20T09:49:16.911Z,17.60
2019-05-20T09:51:20.820Z,17.60
2019-05-20T09:53:24.745Z,17.90
2019-05-20T09:55:28.622Z,17.90
2019-05-20T09:57:32.574Z,18.10
2019-05-20T09:59:43.155Z,17.80
2019-05-20T10:01:42.368Z,17.60
2019-05-20T10:03:46.313Z,17.70
2019-05-20T10:05:50.248Z,18.00
2019-05-20T10:07:54.416Z,17.90
2019-05-20T10:09:58.235Z,17.30
2019-05-20T10:12:02.498Z,17.30
2019-05-20T10:14:06.471Z,17.50
2019-05-20T10:16:10.497Z,17.50
2019-05-20T10:18:14.508Z,17.70
2019-05-20T10:20:18.621Z,17.90
2019-05-20T10:22:22.543Z,18.00
2019-05-20T10:24:26.463Z,18.00
2019-05-20T10:26:30.487Z,17.90
2019-05-20T10:28:34.381Z,17.50
2019-05-20T10:30:38.382Z,17.20
2019-05-20T10:32:42.403Z,17.30
2019-05-20T10:34:46.257Z,17.30
2019-05-20T10:36:50.075Z,17.30
2019-05-20T10:38:58.966Z,17.40
2019-05-20T10:40:59.471Z,17.50
2019-05-20T10:43:03.316Z,17.30
2019-05-20T10:45:07.589Z,17.10
2019-05-20T10:47:11.411Z,16.90
2019-05-20T10:49:15.349Z,17.10
2019-05-20T10:51:19.306Z,17.50
2019-05-20T10:53:23.524Z,17.80
2019-05-20T10:55:27.507Z,18.10
2019-05-20T10:57:31.956Z,18.50
2019-05-20T10:59:35.800Z,18.80
2019-05-20T11:01:39.816Z,18.60
2019-05-20T11:03:43.737Z,18.60
2019-05-20T11:05:47.591Z,18.70
2019-05-20T11:07:51.642Z,18.70
2019-05-20T11:09:55.787Z,18.40
2019-05-20T11:11:59.727Z,18.30
2019-05-20T11:14:04.113Z,18.40
2019-05-20T11:16:08.072Z,18.80
2019-05-20T11:18:11.975Z,19.00
2019-05-20T11:20:16.779Z,19.60
2019-05-20T11:22:20.819Z,19.80
2019-05-20T11:24:24.733Z,19.10
2019-05-20T11:26:28.734Z,19.00
2019-05-20T11:28:32.579Z,19.60
2019-05-20T11:30:36.607Z,20.00
2019-05-20T11:32:40.615Z,19.90
2019-05-20T11:34:44.520Z,19.60
2019-05-20T11:36:48.436Z,19.00
2019-05-20T11:38:52.499Z,19.20
2019-05-20T11:40:56.433Z,19.80
2019-05-20T11:43:00.346Z,20.30
2019-05-20T11:45:04.558Z,20.80
2019-05-20T11:47:08.591Z,20.70
2019-05-20T11:49:12.442Z,20.60
2019-05-20T11:51:16.465Z,20.40
2019-05-20T11:53:20.531Z,20.50
2019-05-20T11:55:24.606Z,20.10
2019-05-20T11:57:28.572Z,20.30
2019-05-20T11:59:32.559Z,20.10
2019-05-20T12:01:36.533Z,20.20
2019-05-20T12:03:40.392Z,20.80
2019-05-20T12:05:44.416Z,21.10
2019-05-20T12:07:48.498Z,21.20
2019-05-20T12:09:52.443Z,21.60
2019-05-20T12:11:57.682Z,22.10
2019-05-20T12:14:01.620Z,22.90
2019-05-20T12:16:05.447Z,23.30
2019-05-20T12:18:09.715Z,23.50
2019-05-20T12:20:14.815Z,23.50
2019-05-20T12:22:18.742Z,23.50
2019-05-20T12:24:22.772Z,23.30
2019-05-20T12:26:27.978Z,23.00
2019-05-20T12:28:31.801Z,22.30
2019-05-20T12:30:35.822Z,21.80
2019-05-20T12:32:40.013Z,21.80
2019-05-20T12:34:43.974Z,22.30
2019-05-20T12:36:47.943Z,22.30
2019-05-20T12:38:51.966Z,21.70
2019-05-20T12:40:55.820Z,22.00
2019-05-20T12:42:59.680Z,21.80
2019-05-20T12:45:03.725Z,22.30
2019-05-20T12:47:07.577Z,22.70
2019-05-20T12:49:11.790Z,22.80
2019-05-20T12:51:15.822Z,22.30
2019-05-20T12:53:19.732Z,22.60
2019-05-20T12:55:23.626Z,22.30
2019-05-20T12:57:27.512Z,21.50
2019-05-20T12:59:31.355Z,21.00
2019-05-20T13:01:35.185Z,21.20
2019-05-20T13:03:39.115Z,21.90
2019-05-20T13:05:43.186Z,22.60
2019-05-20T13:07:47.238Z,23.60
2019-05-20T13:09:51.441Z,24.10
2019-05-20T13:11:55.361Z,24.10
2019-05-20T13:13:59.280Z,24.70
2019-05-20T13:16:03.852Z,24.80
2019-05-20T13:18:07.884Z,24.10
2019-05-20T13:20:12.279Z,24.00
2019-05-20T13:22:16.236Z,23.10
2019-05-20T13:24:20.128Z,22.90
2019-05-20T13:26:25.320Z,22.70
2019-05-20T13:28:29.438Z,22.90
2019-05-20T13:30:33.396Z,23.60
2019-05-20T13:32:37.338Z,24.30
2019-05-20T13:34:41.458Z,24.90
2019-05-20T13:36:45.917Z,25.40
2019-05-20T13:38:49.743Z,25.90
2019-05-20T13:40:53.928Z,26.40
2019-05-20T13:42:58.048Z,26.60
2019-05-20T13:45:02.193Z,26.90
2019-05-20T13:47:06.290Z,26.80
2019-05-20T13:49:10.859Z,26.30
2019-05-20T13:51:14.736Z,25.10
2019-05-20T13:53:18.580Z,25.70
2019-05-20T13:55:22.635Z,25.80
2019-05-20T13:57:26.468Z,25.90
2019-05-20T13:59:31.595Z,26.00
2019-05-20T14:01:35.688Z,26.60
2019-05-20T14:03:39.531Z,25.60
2019-05-20T14:05:43.560Z,26.10
2019-05-20T14:07:50.331Z,25.60
2019-05-20T14:09:54.317Z,25.50
2019-05-20T14:11:58.175Z,26.10
2019-05-20T14:14:02.044Z,26.40
2019-05-20T14:16:05.973Z,25.80
2019-05-20T14:18:09.928Z,25.90
2019-05-20T14:20:15.560Z,26.80
2019-05-20T14:22:19.640Z,27.10
2019-05-20T14:24:23.591Z,27.50
2019-05-20T14:26:27.695Z,28.10
2019-05-20T14:28:32.030Z,28.40
2019-05-20T14:30:36.079Z,27.80
2019-05-20T14:32:40.068Z,27.80
2019-05-20T14:34:43.990Z,26.30
2019-05-20T14:36:52.462Z,25.80
2019-05-20T14:38:53.599Z,26.40
2019-05-20T14:40:57.617Z,25.50
2019-05-20T14:43:01.560Z,24.70
2019-05-20T14:45:06.086Z,25.20
2019-05-20T14:47:09.928Z,25.90
2019-05-20T14:49:13.970Z,26.30
2019-05-20T14:51:17.943Z,26.30
2019-05-20T14:53:21.796Z,26.10
2019-05-20T14:55:25.925Z,26.40
2019-05-20T14:57:30.433Z,25.80
2019-05-20T14:59:34.339Z,25.30
2019-05-20T15:01:38.350Z,24.80
2019-05-20T15:03:42.540Z,24.40
2019-05-20T15:05:46.466Z,24.30
2019-05-20T15:07:50.530Z,24.90
2019-05-20T15:09:54.417Z,25.20
2019-05-20T15:11:58.586Z,24.60
2019-05-20T15:14:02.781Z,24.70
2019-05-20T15:16:06.652Z,24.90
2019-05-20T15:18:10.620Z,25.20
2019-05-20T15:20:14.831Z,24.90
2019-05-20T15:22:18.798Z,23.90
2019-05-20T15:24:22.886Z,23.80
2019-05-20T15:26:26.784Z,24.20
2019-05-20T15:28:30.792Z,24.00
2019-05-20T15:30:34.883Z,23.50
2019-05-20T15:32:38.875Z,23.10
2019-05-20T15:34:42.813Z,22.90
2019-05-20T15:36:47.008Z,23.10
2019-05-20T15:38:51.031Z,23.60
2019-05-20T15:40:55.069Z,23.40
2019-05-20T15:42:59.139Z,23.30
2019-05-20T15:45:03.195Z,22.90
2019-05-20T15:47:07.149Z,23.10
2019-05-20T15:49:11.237Z,22.80
2019-05-20T15:51:15.180Z,22.40
2019-05-20T15:53:19.131Z,22.30
2019-05-20T15:55:23.122Z,22.30
2019-05-20T15:57:26.954Z,22.30
2019-05-20T15:59:44.779Z,22.00
2019-05-20T16:01:36.475Z,21.80
2019-05-20T16:03:40.346Z,21.60
2019-05-20T16:05:44.398Z,21.30
2019-05-20T16:07:48.420Z,21.20
2019-05-20T16:09:52.492Z,21.50
2019-05-20T16:11:56.447Z,21.60
2019-05-20T16:14:00.331Z,21.70
2019-05-20T16:16:04.368Z,21.90
2019-05-20T16:18:08.211Z,21.90
2019-05-20T16:20:12.499Z,21.90
2019-05-20T16:22:16.457Z,22.00
2019-05-20T16:24:20.307Z,22.00
2019-05-20T16:26:24.241Z,22.30
2019-05-20T16:28:28.291Z,22.30
2019-05-20T16:30:32.140Z,22.10
2019-05-20T16:32:36.190Z,22.10
2019-05-20T16:34:40.084Z,22.30
2019-05-20T16:36:43.935Z,22.20
2019-05-20T16:38:47.794Z,22.40
2019-05-20T16:40:51.636Z,22.50
2019-05-20T16:42:55.702Z,22.40
2019-05-20T16:44:59.586Z,22.60
2019-05-20T16:47:03.411Z,22.50
2019-05-20T16:49:07.620Z,22.50
2019-05-20T16:51:11.548Z,22.40
2019-05-20T16:53:15.388Z,22.20
2019-05-20T16:55:19.483Z,22.00
2019-05-20T16:57:23.370Z,22.00
2019-05-20T16:59:27.292Z,22.10
2019-05-20T17:01:45.325Z,22.30
2019-05-20T17:03:36.977Z,22.20
2019-05-20T17:05:40.891Z,22.10
2019-05-20T17:07:44.855Z,22.00
2019-05-20T17:09:48.707Z,22.00
2019-05-20T17:11:52.688Z,21.80
2019-05-20T17:13:56.635Z,21.90
2019-05-20T17:16:00.561Z,22.00
2019-05-20T17:18:04.641Z,21.90
2019-05-20T17:20:09.157Z,21.80
2019-05-20T17:22:13.036Z,22.00
2019-05-20T17:24:17.010Z,22.30
2019-05-20T17:26:21.042Z,22.30
2019-05-20T17:28:24.935Z,22.10
2019-05-20T17:30:28.992Z,22.40
2019-05-20T17:32:32.986Z,22.20
2019-05-20T17:34:37.199Z,22.50
2019-05-20T17:36:41.343Z,22.60
2019-05-20T17:38:45.243Z,22.90
2019-05-20T17:40:49.651Z,22.80
2019-05-20T17:42:53.738Z,22.70
2019-05-20T17:44:57.655Z,22.70
2019-05-20T17:47:01.566Z,22.30
2019-05-20T17:49:05.868Z,22.40
2019-05-20T17:51:10.072Z,22.60
2019-05-20T17:53:14.072Z,22.70
2019-05-20T17:55:18.349Z,23.10
2019-05-20T17:57:22.283Z,23.10
2019-05-20T17:59:26.184Z,22.60
2019-05-20T18:01:30.152Z,22.60
2019-05-20T18:03:34.156Z,22.40
2019-05-20T18:05:38.112Z,22.30
2019-05-20T18:07:42.081Z,22.00
2019-05-20T18:09:48.780Z,22.00
2019-05-20T18:11:52.637Z,22.10
2019-05-20T18:13:56.611Z,21.80
2019-05-20T18:16:00.541Z,21.90
2019-05-20T18:18:04.557Z,21.90
2019-05-20T18:20:08.844Z,21.80
2019-05-20T18:22:12.914Z,21.60
2019-05-20T18:24:16.871Z,21.50
2019-05-20T18:26:20.912Z,21.20
2019-05-20T18:28:24.899Z,21.10
2019-05-20T18:30:28.959Z,21.10
2019-05-20T18:32:32.904Z,21.10
2019-05-20T18:34:36.775Z,20.90
2019-05-20T18:36:40.712Z,20.90
2019-05-20T18:38:44.588Z,20.90
2019-05-20T18:40:48.443Z,20.80
2019-05-20T18:42:52.397Z,20.80
2019-05-20T18:44:56.327Z,20.90
2019-05-20T18:47:00.363Z,20.80
2019-05-20T18:49:04.250Z,20.60
2019-05-20T18:51:08.444Z,20.20
2019-05-20T18:53:12.366Z,20.20
2019-05-20T18:55:16.394Z,20.10
2019-05-20T18:57:20.347Z,20.10
2019-05-20T18:59:24.267Z,20.10
2019-05-20T19:01:28.168Z,20.20
2019-05-20T19:03:32.859Z,20.20
2019-05-20T19:05:37.470Z,20.20
2019-05-20T19:07:41.536Z,20.20
2019-05-20T19:09:45.515Z,20.10
2019-05-20T19:11:49.376Z,20.10
2019-05-20T19:13:53.321Z,20.00
2019-05-20T19:15:57.311Z,19.90
2019-05-20T19:18:01.333Z,19.90
2019-05-20T19:20:05.997Z,19.80
2019-05-20T19:22:09.971Z,19.80
2019-05-20T19:24:16.165Z,19.70
2019-05-20T19:26:24.799Z,19.70
2019-05-20T19:28:26.512Z,19.60
2019-05-20T19:30:30.572Z,19.60
2019-05-20T19:32:34.685Z,19.60
2019-05-20T19:34:38.896Z,19.50
2019-05-20T19:36:42.819Z,19.50
2019-05-20T19:38:46.903Z,19.40
2019-05-20T19:40:50.815Z,19.40
2019-05-20T19:42:54.892Z,19.40
2019-05-20T19:44:58.760Z,19.40
2019-05-20T19:47:02.671Z,19.50
2019-05-20T19:49:06.540Z,19.50
2019-05-20T19:51:10.531Z,19.30
2019-05-20T19:53:14.501Z,19.40
2019-05-20T19:55:19.251Z,19.40
2019-05-20T19:57:23.429Z,19.30
2019-05-20T19:59:27.523Z,19.20
2019-05-20T20:01:31.700Z,19.20
2019-05-20T20:03:35.634Z,19.20
2019-05-20T20:05:39.762Z,19.20
2019-05-20T20:07:43.743Z,19.10
2019-05-20T20:09:47.611Z,19.20
2019-05-20T20:11:51.456Z,19.20
2019-05-20T20:13:55.415Z,19.10
2019-05-20T20:15:59.271Z,19.10
2019-05-20T20:18:03.267Z,19.10
2019-05-20T20:20:07.504Z,19.00
2019-05-20T20:22:11.390Z,19.00
2019-05-20T20:24:15.244Z,19.00
2019-05-20T20:26:19.404Z,19.10
2019-05-20T20:28:23.632Z,19.00
2019-05-20T20:30:27.500Z,18.90
2019-05-20T20:32:38.026Z,18.80
2019-05-20T20:34:37.165Z,18.80
2019-05-20T20:36:41.181Z,18.70
2019-05-20T20:38:45.156Z,18.80
2019-05-20T20:40:51.448Z,18.80
2019-05-20T20:42:55.421Z,18.80
2019-05-20T20:44:59.667Z,18.70
2019-05-20T20:47:03.599Z,18.70
2019-05-20T20:49:07.555Z,18.70
2019-05-20T20:51:11.612Z,18.70
2019-05-20T20:53:15.449Z,18.60
2019-05-20T20:55:19.284Z,18.60
2019-05-20T20:57:23.351Z,18.60
2019-05-20T20:59:28.463Z,18.50
2019-05-20T21:01:32.432Z,18.50
2019-05-20T21:03:36.324Z,18.50
2019-05-20T21:05:40.259Z,18.50
2019-05-20T21:07:44.119Z,18.60
2019-05-20T21:09:48.003Z,18.50
2019-05-20T21:11:51.897Z,18.60
2019-05-20T21:13:55.823Z,18.60
2019-05-20T21:15:59.679Z,18.50
2019-05-20T21:18:03.685Z,18.40
2019-05-20T21:20:07.832Z,18.50
2019-05-20T21:22:12.167Z,18.50
2019-05-20T21:24:16.004Z,18.50
2019-05-20T21:26:20.075Z,18.50
2019-05-20T21:28:24.000Z,18.60
2019-05-20T21:30:28.003Z,18.50
2019-05-20T21:32:32.134Z,18.50
2019-05-20T21:34:35.996Z,18.40
2019-05-20T21:36:47.616Z,18.50
2019-05-20T21:38:45.884Z,18.40
2019-05-20T21:40:49.743Z,18.30
2019-05-20T21:42:53.591Z,18.40
2019-05-20T21:44:57.600Z,18.20
2019-05-20T21:47:01.431Z,18.20
2019-05-20T21:49:05.440Z,18.20
2019-05-20T21:51:09.445Z,18.20
2019-05-20T21:53:13.541Z,18.10
2019-05-20T21:55:17.599Z,18.10
2019-05-20T21:57:21.664Z,18.10
2019-05-20T21:59:25.516Z,18.00
2019-05-20T22:01:29.959Z,18.00
2019-05-20T22:03:33.999Z,18.00
2019-05-20T22:05:37.903Z,18.10
2019-05-20T22:07:42.002Z,18.00
2019-05-20T22:09:47.531Z,18.00
2019-05-20T22:11:51.551Z,17.90
2019-05-20T22:13:55.644Z,17.90
2019-05-20T22:15:59.487Z,17.80
2019-05-20T22:18:06.490Z,17.80
2019-05-20T22:20:11.113Z,17.70
2019-05-20T22:22:30.014Z,17.70
2019-05-20T22:24:36.444Z,17.70
2019-05-20T22:26:40.461Z,17.70
2019-05-20T22:28:44.537Z,17.80
2019-05-20T22:30:49.072Z,17.90
2019-05-20T22:32:59.035Z,17.80
2019-05-20T22:35:03.180Z,17.70
2019-05-20T22:37:07.302Z,17.70
2019-05-20T22:39:11.375Z,17.70
2019-05-20T22:41:27.352Z,17.70
2019-05-20T22:43:34.758Z,17.70
2019-05-20T22:45:44.648Z,17.70
2019-05-20T22:47:48.735Z,17.70
2019-05-20T22:49:52.835Z,17.70
2019-05-20T22:51:57.017Z,17.60
2019-05-20T22:54:01.175Z,17.70
2019-05-20T22:56:10.951Z,17.70
2019-05-20T22:58:21.135Z,17.70
2019-05-20T23:00:31.662Z,17.60
2019-05-20T23:02:43.201Z,17.50
2019-05-20T23:04:53.236Z,17.60
2019-05-20T23:06:58.256Z,17.40
2019-05-20T23:09:02.445Z,17.40
2019-05-20T23:11:14.136Z,17.50
2019-05-20T23:13:18.243Z,17.40
2019-05-20T23:15:22.437Z,17.30
2019-05-20T23:17:26.560Z,17.30
2019-05-20T23:19:30.885Z,17.30
2019-05-20T23:21:35.059Z,17.20
2019-05-20T23:23:42.335Z,17.30
2019-05-20T23:25:46.599Z,17.30
2019-05-20T23:27:50.764Z,17.30
2019-05-20T23:29:54.869Z,17.40
2019-05-20T23:32:01.932Z,17.30
2019-05-20T23:34:12.879Z,17.30
2019-05-20T23:36:14.434Z,17.30
2019-05-20T23:38:18.683Z,17.20
2019-05-20T23:40:22.743Z,17.30
2019-05-20T23:42:29.786Z,17.30
2019-05-20T23:44:33.893Z,17.30
2019-05-20T23:46:51.239Z,17.30
2019-05-20T23:48:55.331Z,17.40
2019-05-20T23:50:59.484Z,17.30
2019-05-20T23:53:08.273Z,17.30
2019-05-20T23:55:12.959Z,17.30
2019-05-20T23:57:17.223Z,17.30
2019-05-20T23:59:21.427Z,17.40
